x

Shumagin Islands - 85nm South Of Sand Point, Ak (46075) Wave Buoy

7:50am - Mon 2nd Mar 2015 All times are UTC.

  • Sig Wave height 7.5ft
  • Peak Period 9s
  • Average Period 6s
  • Wind
    18mph, 22mph gusts
  • Sea Temp 42°f
  • 空気 Temp 42°f
  • Sea Pressure 1011.9mb

More Historic Weather Station data

Upgrade to MSW Pro to gain access to the past 30 days of data for over 8000 Wavebouys and Weather Stations around the globe.

Join Pro

Comparision Forecast

View Surf forecast
   
Mon 03/02 7:50am 7.5ft 9s 6s 18 22 mph 1011.9mb 42f 42f
6:50am 7ft 9s 5s 18 22 mph 1012.5mb 42f 42f
5:50am 6ft 6s 5s 16 20 mph 1013.6mb 42f 42f
4:50am 6ft 6s 5s 20 22 mph 1013.7mb 42f 42f
3:50am 6ft 6s 5s 18 22 mph 1014.5mb 42f 42f
2:50am 6ft 6s 5s 20 22 mph 1015.1mb 42f 42f
1:50am 6ft 5s 5s 20 25 mph 1016.1mb 42f 42f
12:50am 5.5ft 6s 5s 22 25 mph 1017mb 42f 42f
Sun 03/01 11:50pm 5.5ft 5s 4s 22 27 mph 1017.5mb 42f 42f
10:50pm 5.5ft 5s 4s 22 27 mph 1018.5mb 42f 42f
9:50pm 5ft 6s 4s 22 25 mph 1019.6mb 42f 42f
8:50pm 5.5ft 5s 4s 25 27 mph 1020.3mb 42f 42f
7:50pm 5ft 5s 4s 25 27 mph 1020.8mb 42f 42f
6:50pm 5ft 5s 4s 25 29 mph 1021.3mb 42f 42f
5:50pm 5ft 5s 4s 20 25 mph 1021.9mb 42f 42f
4:50pm 4.5ft 4s 4s 20 25 mph 1022.4mb 42f 41f
3:50pm 5ft 5s 4s 20 22 mph 1022.9mb 42f 42f
2:50pm 5ft 5s 4s 18 22 mph 1023.3mb 42f 42f
1:50pm 5.5ft 7s 5s 18 22 mph 1024.2mb 42f 41f
12:50pm 6ft 5s 5s 20 25 mph 1024.8mb 42f 41f
11:50am 5.5ft 5s 5s 20 25 mph 1025.4mb 42f 41f
10:50am 5ft 5s 5s 20 25 mph 1025.8mb 42f 41f
9:50am 6ft 5s 5s 22 27 mph 1026mb 42f 41f
8:50am 5ft 5s 5s 20 25 mph 1026.2mb 42f 41f
7:50am 5ft 5s 5s 20 25 mph 1026.1mb 42f 40f
6:50am 5ft 8s 4s 20 27 mph 1025.8mb 42f 41f
5:50am 6ft 8s 5s 20 22 mph 1025.9mb 42f 40f
4:50am 5.5ft 11s 5s 18 22 mph 1026mb 42f 40f
3:50am 5ft 11s 5s 18 22 mph 1025.2mb 42f 40f
2:50am 5ft 11s 6s 18 20 mph 1024.7mb 42f 42f
1:50am 5ft 8s 6s 18 20 mph 1024.8mb 42f 43f
12:50am 5.5ft 8s 7s 13 18 mph 1024.8mb 42f 44f
Sat 02/28 11:50pm 5ft 11s 6s 13 16 mph 1025.2mb 42f 44f
10:50pm 6.5ft 11s 7s 13 16 mph 1025.9mb 42f 42f
9:50pm 6ft 11s 7s 13 18 mph 1025.8mb 42f 42f
8:50pm 6ft 11s 7s 13 16 mph 1024.7mb 42f 42f
7:50pm 6ft 11s 7s 11 13 mph 1024.5mb 42f 41f
6:50pm 7ft 11s 7s 13 18 mph 1023.7mb 42f 41f
5:50pm 7ft 11s 7s 13 18 mph 1023mb 42f 41f
4:50pm 7ft 12s 7s 11 16 mph 1022.5mb 42f 41f
3:50pm 7ft 11s 7s 11 13 mph 1022.1mb 42f 41f
2:50pm 7.5ft 11s 8s 13 16 mph 1021.7mb 42f 41f
1:50pm 7ft 11s 7s 9
mph
1021.1mb 42f 41f
12:50pm 7ft 11s 7s 4 7 mph 1020.9mb 42f 42f
11:50am 7.5ft 12s 8s 4
mph
1020.2mb 42f 41f
10:50am 7ft 11s 7s 4 7 mph 1019.5mb 42f 41f
9:50am 7ft 11s 7s 4 7 mph 1019.4mb 42f 41f
8:50am 7ft 12s 7s 4 7 mph 1019.4mb 42f 41f
7:50am 7ft 12s 7s 7
mph
1019mb 42f 41f
6:50am 7ft 11s 7s 7 9 mph 1018.3mb 42f 41f
5:50am 6.5ft 12s 7s 4 7 mph 1018.1mb 42f 41f
4:50am 7ft 12s 7s 7 9 mph 1017.5mb 42f 41f
3:50am 7ft 8s 7s 7 9 mph 1017.2mb 42f 42f
2:50am 7ft 9s 6s 7 9 mph 1016.9mb 42f 42f
1:50am 7ft 8s 6s 9 11 mph 1016.8mb 42f 42f
12:50am 7.5ft 8s 6s 11 13 mph 1016.9mb 42f 41f
Fri 02/27 11:50pm 8ft 11s 6s 13 16 mph 1017.1mb 42f 42f
10:50pm 8ft 11s 6s 16 18 mph 1017.4mb 42f 42f
9:50pm 8ft 8s 6s 16 20 mph 1018mb 42f 42f
8:50pm 8.5ft 8s 6s 18 22 mph 1018.1mb 42f 41f
7:50pm 8ft 8s 6s 18 25 mph 1018.6mb 42f 41f
6:50pm 8ft 8s 5s 20 27 mph 1018.8mb 42f 40f
5:50pm 8ft 7s 5s 25 29 mph 1019.3mb 42f 40f
4:50pm 7ft 7s 5s 25 29 mph 1019.9mb 42f 40f
3:50pm 8ft 7s 5s 25 29 mph 1020.7mb 42f 40f
2:50pm 8ft 7s 5s 25 31 mph 1021.8mb 42f 40f
1:50pm 7.5ft 7s 5s 25 29 mph 1022.5mb 42f 40f
12:50pm 8ft 6s 5s 25 31 mph 1023.4mb 42f 39f
11:50am 7ft 6s 5s 25 31 mph 1024.3mb 42f 39f
10:50am 7.5ft 6s 5s 25 29 mph 1025.3mb 42f 40f
9:50am 7ft 6s 5s 27 31 mph 1026.4mb 42f 40f
8:50am 6ft 5s 5s 25 31 mph 1027.1mb 42f 40f
7:50am 6ft 5s 5s 25 29 mph 1028.1mb 42f 41f
6:50am 6ft 5s 5s 25 29 mph 1028.6mb 42f 41f
5:50am 5ft 10s 5s 22 27 mph 1029.3mb 42f 41f
4:50am 4.5ft 10s 5s 22 27 mph 1030mb 42f 41f
3:50am 4.5ft 8s 4s 20 25 mph 1030.4mb 42f 40f
2:50am 4.5ft 9s 5s 18 22 mph 1031.2mb 42f 41f
1:50am 4.5ft 10s 5s 18 22 mph 1031.9mb 42f 41f
12:50am 4.5ft 9s 5s 16 20 mph 1032.5mb 42f 42f
Thu 02/26 11:50pm 4.5ft 8s 5s 18 22 mph 1033.5mb 42f 41f
10:50pm 4ft 9s 5s 18 20 mph 1034.2mb 42f 41f
9:50pm 5ft 10s 8s 13 16 mph 1034.8mb 42f 42f
8:50pm 5ft 9s 8s 9 11 mph 1035mb 42f 41f
7:50pm 4ft 9s 7s 9 11 mph 1035.4mb 42f 41f
6:50pm 4.5ft 9s 7s 4 9 mph 1035.5mb 42f 40f
5:50pm 4ft 8s 7s 11 13 mph 1035.1mb 42f 39f
4:50pm 4ft 10s 7s 4 7 mph 1034.9mb 42f 40f
3:50pm 5ft 9s 7s 7 9 mph 1035mb 42f 40f
2:50pm 5ft 9s 7s 4
mph
1035.3mb 42f 39f
1:50pm 5ft 9s 7s 2 4 mph 1035.4mb 42f 38f
12:50pm 5ft 8s 8s 2
mph
1035.7mb 42f 37f
11:50am 5.5ft 9s 8s 2 4 mph 1035.9mb 42f 38f
10:50am 5ft 9s 7s  -  2 mph 1036.2mb 42f 38f
9:50am 5ft 9s 7s  -  2 mph 1035.8mb 42f 37f
8:50am 5ft 9s 7s  -  2 mph 1035.6mb 42f 37f